sensor_id;sensor_type;location;lat;lon;timestamp;pressure;altitude;pressure_sealevel;temperature;humidity
6833;BME280;3454;42.654;23.378;2023-02-23T00:01:38;94278.03;;;9.16;69.96
6833;BME280;3454;42.654;23.378;2023-02-23T00:04:05;94269.09;;;9.12;70.17
6833;BME280;3454;42.654;23.378;2023-02-23T00:06:32;94262.81;;;9.07;70.76
6833;BME280;3454;42.654;23.378;2023-02-23T00:09:01;94264.94;;;9.02;71.33
6833;BME280;3454;42.654;23.378;2023-02-23T00:11:31;94276.16;;;9.09;70.29
6833;BME280;3454;42.654;23.378;2023-02-23T00:13:58;94294.06;;;9.17;70.15
6833;BME280;3454;42.654;23.378;2023-02-23T00:16:25;94263.28;;;8.82;70.48
6833;BME280;3454;42.654;23.378;2023-02-23T00:18:57;94276.88;;;8.81;71.69
6833;BME280;3454;42.654;23.378;2023-02-23T00:21:31;94284.34;;;8.82;71.00
6833;BME280;3454;42.654;23.378;2023-02-23T00:24:04;94284.44;;;8.71;71.11
6833;BME280;3454;42.654;23.378;2023-02-23T00:26:32;94281.19;;;8.60;71.56
6833;BME280;3454;42.654;23.378;2023-02-23T00:28:59;94258.63;;;8.26;72.98
6833;BME280;3454;42.654;23.378;2023-02-23T00:31:27;94242.41;;;8.08;74.13
6833;BME280;3454;42.654;23.378;2023-02-23T00:33:54;94240.69;;;7.88;75.72
6833;BME280;3454;42.654;23.378;2023-02-23T00:36:22;94246.19;;;7.93;75.86
6833;BME280;3454;42.654;23.378;2023-02-23T00:38:53;94254.31;;;7.97;75.60
6833;BME280;3454;42.654;23.378;2023-02-23T00:41:19;94246.59;;;7.98;75.06
6833;BME280;3454;42.654;23.378;2023-02-23T00:43:49;94267.59;;;8.10;75.19
6833;BME280;3454;42.654;23.378;2023-02-23T00:46:20;94250.31;;;7.94;75.96
6833;BME280;3454;42.654;23.378;2023-02-23T00:48:47;94249.22;;;7.87;75.90
6833;BME280;3454;42.654;23.378;2023-02-23T00:51:13;94245.81;;;7.77;76.74
6833;BME280;3454;42.654;23.378;2023-02-23T00:53:40;94249.06;;;7.68;77.44
6833;BME280;3454;42.654;23.378;2023-02-23T00:56:09;94232.03;;;7.49;77.23
6833;BME280;3454;42.654;23.378;2023-02-23T00:58:35;94247.09;;;7.51;77.54
6833;BME280;3454;42.654;23.378;2023-02-23T01:01:00;94249.97;;;7.46;78.35
6833;BME280;3454;42.654;23.378;2023-02-23T01:03:27;94251.28;;;7.41;77.92
6833;BME280;3454;42.654;23.378;2023-02-23T01:05:57;94225.28;;;7.18;79.39
6833;BME280;3454;42.654;23.378;2023-02-23T01:08:23;94250.97;;;7.23;79.42
6833;BME280;3454;42.654;23.378;2023-02-23T01:10:49;94255.94;;;7.25;80.32
6833;BME280;3454;42.654;23.378;2023-02-23T01:13:23;94256.72;;;7.25;79.61
6833;BME280;3454;42.654;23.378;2023-02-23T01:15:48;94257.66;;;7.24;79.81
6833;BME280;3454;42.654;23.378;2023-02-23T01:18:15;94247.25;;;7.07;81.43
6833;BME280;3454;42.654;23.378;2023-02-23T01:20:43;94238.06;;;7.06;80.90
6833;BME280;3454;42.654;23.378;2023-02-23T01:23:13;94264.22;;;7.16;81.02
6833;BME280;3454;42.654;23.378;2023-02-23T01:25:43;94258.25;;;7.17;80.52
6833;BME280;3454;42.654;23.378;2023-02-23T01:28:09;94258.81;;;7.09;80.59
6833;BME280;3454;42.654;23.378;2023-02-23T01:30:35;94260.09;;;7.15;80.92
6833;BME280;3454;42.654;23.378;2023-02-23T01:33:01;94254.78;;;7.18;80.34
6833;BME280;3454;42.654;23.378;2023-02-23T01:35:27;94268.44;;;7.26;80.16
6833;BME280;3454;42.654;23.378;2023-02-23T01:37:53;94270.84;;;7.28;80.47
6833;BME280;3454;42.654;23.378;2023-02-23T01:40:21;94290.66;;;7.43;79.05
6833;BME280;3454;42.654;23.378;2023-02-23T01:42:58;94282.88;;;7.35;79.77
6833;BME280;3454;42.654;23.378;2023-02-23T01:45:34;94278.16;;;7.42;79.40
6833;BME280;3454;42.654;23.378;2023-02-23T01:48:06;94286.13;;;7.58;78.75
6833;BME280;3454;42.654;23.378;2023-02-23T01:50:58;94295.41;;;7.69;78.09
6833;BME280;3454;42.654;23.378;2023-02-23T01:53:27;94310.56;;;7.80;76.90
6833;BME280;3454;42.654;23.378;2023-02-23T01:55:56;94302.47;;;7.86;77.52
6833;BME280;3454;42.654;23.378;2023-02-23T01:58:27;94316.50;;;7.90;76.71
6833;BME280;3454;42.654;23.378;2023-02-23T02:00:57;94312.47;;;7.87;76.10
6833;BME280;3454;42.654;23.378;2023-02-23T02:03:32;94325.13;;;7.87;75.89
6833;BME280;3454;42.654;23.378;2023-02-23T02:06:00;94305.38;;;7.81;76.48
6833;BME280;3454;42.654;23.378;2023-02-23T02:08:29;94305.38;;;7.81;76.66
6833;BME280;3454;42.654;23.378;2023-02-23T02:10:55;94309.13;;;7.87;76.22
6833;BME280;3454;42.654;23.378;2023-02-23T02:13:27;94309.97;;;7.76;76.07
6833;BME280;3454;42.654;23.378;2023-02-23T02:16:21;94302.66;;;7.73;76.17
6833;BME280;3454;42.654;23.378;2023-02-23T02:19:14;94270.53;;;7.53;77.74
6833;BME280;3454;42.654;23.378;2023-02-23T02:27:20;94295.88;;;7.74;77.34
6833;BME280;3454;42.654;23.378;2023-02-23T02:46:14;94256.44;;;7.08;79.42
6833;BME280;3454;42.654;23.378;2023-02-23T02:51:48;94247.25;;;7.07;79.28
6833;BME280;3454;42.654;23.378;2023-02-23T02:54:38;94235.78;;;6.92;79.67
6833;BME280;3454;42.654;23.378;2023-02-23T02:57:05;94241.31;;;6.97;80.27
6833;BME280;3454;42.654;23.378;2023-02-23T02:59:41;94240.28;;;6.88;80.01
6833;BME280;3454;42.654;23.378;2023-02-23T03:02:26;94223.22;;;6.69;80.96
6833;BME280;3454;42.654;23.378;2023-02-23T03:05:15;94218.53;;;6.54;81.76
6833;BME280;3454;42.654;23.378;2023-02-23T03:11:04;94214.16;;;6.45;82.89
6833;BME280;3454;42.654;23.378;2023-02-23T03:19:56;94233.69;;;6.54;82.36
6833;BME280;3454;42.654;23.378;2023-02-23T03:22:50;94219.91;;;6.36;83.25
6833;BME280;3454;42.654;23.378;2023-02-23T03:31:42;94229.78;;;6.06;86.09
6833;BME280;3454;42.654;23.378;2023-02-23T03:34:36;94240.66;;;5.95;87.20
6833;BME280;3454;42.654;23.378;2023-02-23T03:37:27;94245.91;;;5.92;87.38
6833;BME280;3454;42.654;23.378;2023-02-23T03:40:30;94248.09;;;5.97;86.91
6833;BME280;3454;42.654;23.378;2023-02-23T03:43:21;94237.44;;;5.93;87.74
6833;BME280;3454;42.654;23.378;2023-02-23T03:46:08;94268.88;;;6.11;86.87
6833;BME280;3454;42.654;23.378;2023-02-23T03:48:54;94270.94;;;6.17;86.01
6833;BME280;3454;42.654;23.378;2023-02-23T03:51:42;94281.72;;;6.30;85.29
6833;BME280;3454;42.654;23.378;2023-02-23T03:54:34;94286.22;;;6.27;85.53
6833;BME280;3454;42.654;23.378;2023-02-23T03:57:20;94291.97;;;6.40;85.35
6833;BME280;3454;42.654;23.378;2023-02-23T04:00:08;94320.34;;;6.54;84.84
6833;BME280;3454;42.654;23.378;2023-02-23T04:02:55;94321.56;;;6.49;84.15
6833;BME280;3454;42.654;23.378;2023-02-23T04:05:42;94307.13;;;6.40;84.30
6833;BME280;3454;42.654;23.378;2023-02-23T04:08:32;94314.78;;;6.38;84.42
6833;BME280;3454;42.654;23.378;2023-02-23T04:11:32;94299.63;;;6.38;84.87
6833;BME280;3454;42.654;23.378;2023-02-23T04:14:27;94328.59;;;6.56;84.03
6833;BME280;3454;42.654;23.378;2023-02-23T04:16:56;94335.34;;;6.67;83.06
6833;BME280;3454;42.654;23.378;2023-02-23T04:19:26;94342.13;;;6.77;82.38
6833;BME280;3454;42.654;23.378;2023-02-23T04:21:52;94340.53;;;6.76;83.27
6833;BME280;3454;42.654;23.378;2023-02-23T04:24:17;94329.06;;;6.72;82.54
6833;BME280;3454;42.654;23.378;2023-02-23T04:26:43;94359.59;;;6.92;81.32
6833;BME280;3454;42.654;23.378;2023-02-23T04:29:10;94350.16;;;6.94;81.50
6833;BME280;3454;42.654;23.378;2023-02-23T04:31:36;94367.38;;;7.00;80.71
6833;BME280;3454;42.654;23.378;2023-02-23T04:34:01;94359.47;;;6.93;81.28
6833;BME280;3454;42.654;23.378;2023-02-23T04:36:27;94342.94;;;6.89;81.75
6833;BME280;3454;42.654;23.378;2023-02-23T04:38:53;94359.13;;;6.98;81.25
6833;BME280;3454;42.654;23.378;2023-02-23T04:41:18;94346.03;;;6.82;82.08
6833;BME280;3454;42.654;23.378;2023-02-23T04:43:44;94349.47;;;6.92;81.78
6833;BME280;3454;42.654;23.378;2023-02-23T04:46:09;94354.41;;;6.93;81.61
6833;BME280;3454;42.654;23.378;2023-02-23T04:48:35;94337.56;;;6.83;82.12
6833;BME280;3454;42.654;23.378;2023-02-23T04:51:00;94339.28;;;6.82;82.04
6833;BME280;3454;42.654;23.378;2023-02-23T04:53:25;94329.28;;;6.69;82.36
6833;BME280;3454;42.654;23.378;2023-02-23T04:55:51;94329.28;;;6.69;82.69
6833;BME280;3454;42.654;23.378;2023-02-23T04:58:17;94302.78;;;6.64;84.56
6833;BME280;3454;42.654;23.378;2023-02-23T05:00:42;94310.91;;;6.67;84.09
6833;BME280;3454;42.654;23.378;2023-02-23T05:03:08;94335.59;;;6.86;83.23
6833;BME280;3454;42.654;23.378;2023-02-23T05:05:33;94331.22;;;6.88;83.02
6833;BME280;3454;42.654;23.378;2023-02-23T05:07:59;94336.72;;;6.93;82.89
6833;BME280;3454;42.654;23.378;2023-02-23T05:10:25;94346.03;;;7.04;82.56
6833;BME280;3454;42.654;23.378;2023-02-23T05:12:50;94344.22;;;6.95;82.74
6833;BME280;3454;42.654;23.378;2023-02-23T05:15:17;94352.69;;;6.94;82.24
6833;BME280;3454;42.654;23.378;2023-02-23T05:17:42;94328.13;;;6.73;83.12
6833;BME280;3454;42.654;23.378;2023-02-23T05:20:10;94296.22;;;6.39;83.76
6833;BME280;3454;42.654;23.378;2023-02-23T05:22:36;94316.88;;;6.44;84.01
6833;BME280;3454;42.654;23.378;2023-02-23T05:25:02;94284.75;;;6.35;85.61
6833;BME280;3454;42.654;23.378;2023-02-23T05:27:28;94297.34;;;6.35;85.84
6833;BME280;3454;42.654;23.378;2023-02-23T05:29:54;94280.03;;;6.31;87.52
6833;BME280;3454;42.654;23.378;2023-02-23T05:32:19;94312.25;;;6.27;85.61
6833;BME280;3454;42.654;23.378;2023-02-23T05:34:45;94305.34;;;6.18;85.70
6833;BME280;3454;42.654;23.378;2023-02-23T05:37:10;94278.84;;;5.78;88.19
6833;BME280;3454;42.654;23.378;2023-02-23T05:39:35;94268.94;;;5.53;89.87
6833;BME280;3454;42.654;23.378;2023-02-23T05:42:01;94286.72;;;5.51;90.96
6833;BME280;3454;42.654;23.378;2023-02-23T05:44:26;94301.28;;;5.59;90.65
6833;BME280;3454;42.654;23.378;2023-02-23T05:46:52;94307.41;;;5.67;90.95
6833;BME280;3454;42.654;23.378;2023-02-23T05:49:17;94316.59;;;5.79;89.70
6833;BME280;3454;42.654;23.378;2023-02-23T05:51:43;94312.56;;;5.77;90.33
6833;BME280;3454;42.654;23.378;2023-02-23T05:54:08;94322.72;;;5.88;90.57
6833;BME280;3454;42.654;23.378;2023-02-23T05:56:34;94345.47;;;5.99;89.09
6833;BME280;3454;42.654;23.378;2023-02-23T05:58:59;94333.09;;;6.07;88.69
6833;BME280;3454;42.654;23.378;2023-02-23T06:01:27;94348.50;;;6.26;88.64
6833;BME280;3454;42.654;23.378;2023-02-23T06:03:52;94344.72;;;6.21;88.77
6833;BME280;3454;42.654;23.378;2023-02-23T06:06:18;94347.97;;;6.34;87.67
6833;BME280;3454;42.654;23.378;2023-02-23T06:08:44;94364.59;;;6.47;86.37
6833;BME280;3454;42.654;23.378;2023-02-23T06:11:10;94379.09;;;6.56;86.38
6833;BME280;3454;42.654;23.378;2023-02-23T06:13:36;94385.78;;;6.68;85.33
6833;BME280;3454;42.654;23.378;2023-02-23T06:16:02;94423.69;;;6.91;84.76
6833;BME280;3454;42.654;23.378;2023-02-23T06:18:28;94431.94;;;6.93;82.98
6833;BME280;3454;42.654;23.378;2023-02-23T06:20:54;94423.56;;;6.92;83.38
6833;BME280;3454;42.654;23.378;2023-02-23T06:23:20;94420.00;;;6.95;83.71
6833;BME280;3454;42.654;23.378;2023-02-23T06:25:47;94468.94;;;7.16;81.34
6833;BME280;3454;42.654;23.378;2023-02-23T06:28:13;94456.53;;;7.02;82.16
6833;BME280;3454;42.654;23.378;2023-02-23T06:30:39;94423.66;;;6.79;83.56
6833;BME280;3454;42.654;23.378;2023-02-23T06:33:06;94434.25;;;6.96;83.03
6833;BME280;3454;42.654;23.378;2023-02-23T06:35:32;94434.72;;;7.01;83.12
6833;BME280;3454;42.654;23.378;2023-02-23T06:37:59;94445.97;;;7.19;82.56
6833;BME280;3454;42.654;23.378;2023-02-23T06:40:25;94492.72;;;7.57;80.59
6833;BME280;3454;42.654;23.378;2023-02-23T06:42:50;94508.25;;;7.75;79.43
6833;BME280;3454;42.654;23.378;2023-02-23T06:45:22;94479.72;;;7.73;81.08
6833;BME280;3454;42.654;23.378;2023-02-23T06:47:47;94493.41;;;7.82;79.98
6833;BME280;3454;42.654;23.378;2023-02-23T06:50:14;94482.47;;;7.70;80.37
6833;BME280;3454;42.654;23.378;2023-02-23T06:52:40;94463.88;;;7.60;81.38
6833;BME280;3454;42.654;23.378;2023-02-23T06:55:07;94468.00;;;7.72;80.88
6833;BME280;3454;42.654;23.378;2023-02-23T06:57:33;94509.56;;;8.12;79.70
6833;BME280;3454;42.654;23.378;2023-02-23T06:59:59;94524.50;;;8.26;78.37
6833;BME280;3454;42.654;23.378;2023-02-23T07:02:26;94513.22;;;8.19;78.91
6833;BME280;3454;42.654;23.378;2023-02-23T07:04:51;94508.53;;;8.26;79.27
6833;BME280;3454;42.654;23.378;2023-02-23T07:07:17;94511.09;;;8.46;79.22
6833;BME280;3454;42.654;23.378;2023-02-23T07:09:42;94507.59;;;8.59;79.48
6833;BME280;3454;42.654;23.378;2023-02-23T07:12:09;94506.41;;;8.63;78.88
6833;BME280;3454;42.654;23.378;2023-02-23T07:14:34;94489.06;;;8.58;79.48
6833;BME280;3454;42.654;23.378;2023-02-23T07:17:00;94506.50;;;8.72;78.87
6833;BME280;3454;42.654;23.378;2023-02-23T07:19:26;94508.16;;;8.83;79.22
6833;BME280;3454;42.654;23.378;2023-02-23T07:21:51;94531.44;;;9.08;77.88
6833;BME280;3454;42.654;23.378;2023-02-23T07:24:18;94539.09;;;9.18;77.73
6833;BME280;3454;42.654;23.378;2023-02-23T07:26:43;94547.19;;;9.12;77.23
6833;BME280;3454;42.654;23.378;2023-02-23T07:29:12;94561.19;;;9.27;77.00
6833;BME280;3454;42.654;23.378;2023-02-23T07:31:38;94558.09;;;9.23;76.26
6833;BME280;3454;42.654;23.378;2023-02-23T07:34:04;94565.13;;;9.20;75.92
6833;BME280;3454;42.654;23.378;2023-02-23T07:36:31;94552.28;;;9.32;76.55
6833;BME280;3454;42.654;23.378;2023-02-23T07:38:57;94563.41;;;9.41;75.63
6833;BME280;3454;42.654;23.378;2023-02-23T07:41:23;94558.16;;;9.33;76.64
6833;BME280;3454;42.654;23.378;2023-02-23T07:43:48;94556.16;;;9.37;76.15
6833;BME280;3454;42.654;23.378;2023-02-23T07:46:14;94550.41;;;9.55;76.03
6833;BME280;3454;42.654;23.378;2023-02-23T07:48:40;94573.06;;;9.47;74.71
6833;BME280;3454;42.654;23.378;2023-02-23T07:51:10;94554.28;;;9.59;75.24
6833;BME280;3454;42.654;23.378;2023-02-23T07:53:36;94585.00;;;9.86;74.45
6833;BME280;3454;42.654;23.378;2023-02-23T07:56:02;94599.94;;;10.10;73.55
6833;BME280;3454;42.654;23.378;2023-02-23T07:58:28;94591.63;;;10.08;73.51
6833;BME280;3454;42.654;23.378;2023-02-23T08:00:55;94603.88;;;10.24;73.09
6833;BME280;3454;42.654;23.378;2023-02-23T08:03:20;94641.56;;;10.58;71.65
6833;BME280;3454;42.654;23.378;2023-02-23T08:05:46;94667.69;;;10.79;70.20
6833;BME280;3454;42.654;23.378;2023-02-23T08:08:11;94681.06;;;10.72;69.10
6833;BME280;3454;42.654;23.378;2023-02-23T08:10:37;94673.47;;;10.81;69.67
6833;BME280;3454;42.654;23.378;2023-02-23T08:13:04;94670.16;;;11.00;69.61
6833;BME280;3454;42.654;23.378;2023-02-23T08:15:30;94702.72;;;11.44;67.86
6833;BME280;3454;42.654;23.378;2023-02-23T08:17:56;94749.75;;;11.50;65.52
6833;BME280;3454;42.654;23.378;2023-02-23T08:20:22;94738.59;;;11.32;65.58
6833;BME280;3454;42.654;23.378;2023-02-23T08:22:52;94720.69;;;11.52;66.20
6833;BME280;3454;42.654;23.378;2023-02-23T08:25:18;94745.75;;;12.05;65.06
6833;BME280;3454;42.654;23.378;2023-02-23T08:27:43;94760.03;;;12.44;64.15
6833;BME280;3454;42.654;23.378;2023-02-23T08:30:10;94792.44;;;12.61;62.67
6833;BME280;3454;42.654;23.378;2023-02-23T08:32:36;94757.25;;;12.74;63.36
6833;BME280;3454;42.654;23.378;2023-02-23T08:35:01;94792.03;;;13.02;62.40
6833;BME280;3454;42.654;23.378;2023-02-23T08:37:30;94815.16;;;13.01;60.70
6833;BME280;3454;42.654;23.378;2023-02-23T08:39:56;94837.84;;;13.40;59.31
6833;BME280;3454;42.654;23.378;2023-02-23T08:42:23;94848.34;;;13.82;58.46
6833;BME280;3454;42.654;23.378;2023-02-23T08:44:48;94847.75;;;14.06;58.97
6833;BME280;3454;42.654;23.378;2023-02-23T08:47:15;94856.75;;;14.10;57.69
6833;BME280;3454;42.654;23.378;2023-02-23T08:49:41;94900.56;;;14.42;55.83
6833;BME280;3454;42.654;23.378;2023-02-23T08:52:06;94861.44;;;14.50;56.01
6833;BME280;3454;42.654;23.378;2023-02-23T08:54:32;94871.84;;;14.99;55.51
6833;BME280;3454;42.654;23.378;2023-02-23T08:56:57;94869.03;;;14.85;54.33
6833;BME280;3454;42.654;23.378;2023-02-23T08:59:23;94833.31;;;14.75;55.77
6833;BME280;3454;42.654;23.378;2023-02-23T09:01:50;94854.19;;;14.88;55.05
6833;BME280;3454;42.654;23.378;2023-02-23T09:04:16;94885.31;;;15.35;53.48
6833;BME280;3454;42.654;23.378;2023-02-23T09:06:43;94878.97;;;15.73;52.98
6833;BME280;3454;42.654;23.378;2023-02-23T09:09:08;94885.13;;;16.12;52.32
6833;BME280;3454;42.654;23.378;2023-02-23T09:11:33;94895.78;;;16.41;51.48
6833;BME280;3454;42.654;23.378;2023-02-23T09:13:59;94901.56;;;16.43;50.70
6833;BME280;3454;42.654;23.378;2023-02-23T09:16:25;94925.00;;;16.72;49.16
6833;BME280;3454;42.654;23.378;2023-02-23T09:18:50;94909.09;;;17.09;48.49
6833;BME280;3454;42.654;23.378;2023-02-23T09:21:19;94914.03;;;17.51;47.42
6833;BME280;3454;42.654;23.378;2023-02-23T09:23:50;94924.00;;;17.22;46.94
6833;BME280;3454;42.654;23.378;2023-02-23T09:26:17;94900.34;;;17.42;47.11
6833;BME280;3454;42.654;23.378;2023-02-23T09:28:43;94926.19;;;17.65;45.81
6833;BME280;3454;42.654;23.378;2023-02-23T09:31:16;94920.34;;;17.79;45.60
6833;BME280;3454;42.654;23.378;2023-02-23T09:33:42;94915.19;;;17.87;45.39
6833;BME280;3454;42.654;23.378;2023-02-23T09:36:09;94916.91;;;17.95;45.11
6833;BME280;3454;42.654;23.378;2023-02-23T09:38:38;94927.94;;;18.11;44.63
6833;BME280;3454;42.654;23.378;2023-02-23T09:41:15;94937.19;;;18.20;43.87
6833;BME280;3454;42.654;23.378;2023-02-23T09:43:59;94929.69;;;18.41;43.83
6833;BME280;3454;42.654;23.378;2023-02-23T09:46:49;94967.25;;;18.81;42.70
6833;BME280;3454;42.654;23.378;2023-02-23T09:49:22;94959.25;;;18.54;42.44
6833;BME280;3454;42.654;23.378;2023-02-23T09:51:51;94948.34;;;18.89;42.39
6833;BME280;3454;42.654;23.378;2023-02-23T09:54:22;94956.53;;;19.29;41.88
6833;BME280;3454;42.654;23.378;2023-02-23T09:56:49;94968.53;;;19.74;41.47
6833;BME280;3454;42.654;23.378;2023-02-23T09:59:19;94967.75;;;19.22;40.54
6833;BME280;3454;42.654;23.378;2023-02-23T10:04:19;94966.19;;;19.36;40.38
6833;BME280;3454;42.654;23.378;2023-02-23T10:23:03;94985.56;;;20.48;37.53
6833;BME280;3454;42.654;23.378;2023-02-23T10:25:34;94982.31;;;20.40;37.37
6833;BME280;3454;42.654;23.378;2023-02-23T10:28:02;94962.91;;;20.29;37.64
6833;BME280;3454;42.654;23.378;2023-02-23T10:30:31;94926.97;;;20.28;38.62
6833;BME280;3454;42.654;23.378;2023-02-23T10:35:45;94881.28;;;20.14;39.42
6833;BME280;3454;42.654;23.378;2023-02-23T10:38:16;94872.59;;;20.57;38.60
6833;BME280;3454;42.654;23.378;2023-02-23T10:40:44;94942.22;;;21.28;37.59
6833;BME280;3454;42.654;23.378;2023-02-23T10:43:12;94920.50;;;21.23;37.79
6833;BME280;3454;42.654;23.378;2023-02-23T10:45:51;94899.22;;;20.36;38.37
6833;BME280;3454;42.654;23.378;2023-02-23T10:48:26;94907.41;;;20.82;37.87
6833;BME280;3454;42.654;23.378;2023-02-23T10:50:55;94917.81;;;20.88;37.32
6833;BME280;3454;42.654;23.378;2023-02-23T10:53:30;94939.72;;;21.14;36.37
6833;BME280;3454;42.654;23.378;2023-02-23T10:56:05;94898.09;;;21.36;36.62
6833;BME280;3454;42.654;23.378;2023-02-23T10:59:00;94868.91;;;20.66;37.30
6833;BME280;3454;42.654;23.378;2023-02-23T11:04:32;94864.78;;;20.71;37.12
6833;BME280;3454;42.654;23.378;2023-02-23T11:09:40;94885.38;;;21.41;36.20
6833;BME280;3454;42.654;23.378;2023-02-23T11:12:15;94877.09;;;21.87;36.09
6833;BME280;3454;42.654;23.378;2023-02-23T11:14:50;94885.00;;;22.26;35.79
6833;BME280;3454;42.654;23.378;2023-02-23T11:17:42;94904.97;;;22.38;34.93
6833;BME280;3454;42.654;23.378;2023-02-23T11:22:43;94911.47;;;22.82;34.03
6833;BME280;3454;42.654;23.378;2023-02-23T11:25:27;94900.69;;;23.04;34.11
6833;BME280;3454;42.654;23.378;2023-02-23T11:27:55;94880.34;;;23.01;33.98
6833;BME280;3454;42.654;23.378;2023-02-23T11:30:30;94854.81;;;22.85;34.54
6833;BME280;3454;42.654;23.378;2023-02-23T11:33:01;94837.44;;;23.05;34.45
6833;BME280;3454;42.654;23.378;2023-02-23T11:35:36;94855.38;;;23.20;33.73
6833;BME280;3454;42.654;23.378;2023-02-23T11:38:23;94846.00;;;22.93;33.75
6833;BME280;3454;42.654;23.378;2023-02-23T11:41:17;94814.72;;;22.68;34.69
6833;BME280;3454;42.654;23.378;2023-02-23T11:43:56;94839.66;;;22.69;33.33
6833;BME280;3454;42.654;23.378;2023-02-23T11:46:22;94820.09;;;22.99;33.78
6833;BME280;3454;42.654;23.378;2023-02-23T11:48:55;94820.25;;;23.30;33.58
6833;BME280;3454;42.654;23.378;2023-02-23T11:51:37;94812.09;;;23.14;33.72
6833;BME280;3454;42.654;23.378;2023-02-23T11:54:04;94790.56;;;22.54;34.52
6833;BME280;3454;42.654;23.378;2023-02-23T11:56:32;94802.13;;;22.26;33.62
6833;BME280;3454;42.654;23.378;2023-02-23T11:59:14;94810.53;;;22.67;33.69
6833;BME280;3454;42.654;23.378;2023-02-23T12:01:43;94785.19;;;22.69;34.20
6833;BME280;3454;42.654;23.378;2023-02-23T12:04:29;94784.38;;;22.29;34.14
6833;BME280;3454;42.654;23.378;2023-02-23T12:13:08;94743.53;;;22.25;35.40
6833;BME280;3454;42.654;23.378;2023-02-23T12:20:49;94701.97;;;21.59;36.29
6833;BME280;3454;42.654;23.378;2023-02-23T12:23:23;94703.16;;;21.57;36.19
6833;BME280;3454;42.654;23.378;2023-02-23T12:26:01;94713.63;;;21.29;35.79
6833;BME280;3454;42.654;23.378;2023-02-23T12:28:43;94672.66;;;21.33;36.73
6833;BME280;3454;42.654;23.378;2023-02-23T12:33:47;94672.06;;;21.31;36.90
6833;BME280;3454;42.654;23.378;2023-02-23T12:36:31;94686.38;;;20.86;36.49
6833;BME280;3454;42.654;23.378;2023-02-23T12:39:23;94664.59;;;20.67;37.26
6833;BME280;3454;42.654;23.378;2023-02-23T12:42:06;94644.28;;;20.24;38.39
6833;BME280;3454;42.654;23.378;2023-02-23T12:44:45;94652.88;;;20.09;37.50
6833;BME280;3454;42.654;23.378;2023-02-23T12:47:28;94616.78;;;19.88;38.35
6833;BME280;3454;42.654;23.378;2023-02-23T12:50:05;94626.28;;;19.81;38.52
6833;BME280;3454;42.654;23.378;2023-02-23T12:52:44;94603.81;;;19.54;39.27
6833;BME280;3454;42.654;23.378;2023-02-23T12:55:12;94599.03;;;19.51;39.68
6833;BME280;3454;42.654;23.378;2023-02-23T12:57:52;94579.19;;;19.31;40.24
6833;BME280;3454;42.654;23.378;2023-02-23T13:00:28;94592.94;;;19.38;39.93
6833;BME280;3454;42.654;23.378;2023-02-23T13:03:24;94588.34;;;19.54;39.73
6833;BME280;3454;42.654;23.378;2023-02-23T13:09:12;94577.09;;;19.89;39.92
6833;BME280;3454;42.654;23.378;2023-02-23T13:20:04;94592.72;;;19.81;39.35
6833;BME280;3454;42.654;23.378;2023-02-23T13:23:07;94555.78;;;18.90;40.55
6833;BME280;3454;42.654;23.378;2023-02-23T13:28:14;94574.34;;;19.42;40.01
6833;BME280;3454;42.654;23.378;2023-02-23T13:30:43;94562.47;;;19.26;40.12
6833;BME280;3454;42.654;23.378;2023-02-23T13:33:24;94584.47;;;19.44;39.56
6833;BME280;3454;42.654;23.378;2023-02-23T13:35:51;94576.97;;;19.49;39.82
6833;BME280;3454;42.654;23.378;2023-02-23T13:38:58;94564.03;;;19.42;39.91
6833;BME280;3454;42.654;23.378;2023-02-23T13:41:41;94575.47;;;18.97;40.40
6833;BME280;3454;42.654;23.378;2023-02-23T13:47:16;94594.75;;;19.22;39.23
6833;BME280;3454;42.654;23.378;2023-02-23T13:49:59;94563.19;;;18.99;40.33
6833;BME280;3454;42.654;23.378;2023-02-23T13:52:37;94548.47;;;18.93;40.80
6833;BME280;3454;42.654;23.378;2023-02-23T13:58:09;94567.34;;;18.79;40.42
6833;BME280;3454;42.654;23.378;2023-02-23T14:00:39;94558.28;;;18.83;40.81
6833;BME280;3454;42.654;23.378;2023-02-23T14:03:07;94558.69;;;18.87;40.48
6833;BME280;3454;42.654;23.378;2023-02-23T14:05:45;94503.84;;;18.51;43.02
6833;BME280;3454;42.654;23.378;2023-02-23T14:08:31;94563.72;;;18.74;40.70
6833;BME280;3454;42.654;23.378;2023-02-23T14:10:59;94544.16;;;18.58;40.93
6833;BME280;3454;42.654;23.378;2023-02-23T14:13:34;94537.38;;;18.42;41.37
6833;BME280;3454;42.654;23.378;2023-02-23T14:16:14;94552.03;;;18.57;41.34
6833;BME280;3454;42.654;23.378;2023-02-23T14:21:50;94527.06;;;18.42;41.96
6833;BME280;3454;42.654;23.378;2023-02-23T14:24:25;94495.72;;;18.18;42.80
6833;BME280;3454;42.654;23.378;2023-02-23T14:29:40;94458.50;;;17.85;44.99
6833;BME280;3454;42.654;23.378;2023-02-23T14:34:55;94453.72;;;17.30;45.54
6833;BME280;3454;42.654;23.378;2023-02-23T14:37:37;94447.16;;;17.13;46.30
6833;BME280;3454;42.654;23.378;2023-02-23T14:40:15;94428.47;;;17.04;47.21
6833;BME280;3454;42.654;23.378;2023-02-23T14:42:49;94425.47;;;16.78;47.60
6833;BME280;3454;42.654;23.378;2023-02-23T14:45:35;94424.72;;;16.69;47.90
6833;BME280;3454;42.654;23.378;2023-02-23T14:48:05;94415.53;;;16.52;48.44
6833;BME280;3454;42.654;23.378;2023-02-23T14:50:35;94411.84;;;16.55;48.78
6833;BME280;3454;42.654;23.378;2023-02-23T14:53:03;94338.59;;;15.76;49.26
6833;BME280;3454;42.654;23.378;2023-02-23T14:55:32;94394.63;;;16.10;50.09
6833;BME280;3454;42.654;23.378;2023-02-23T14:58:02;94387.50;;;15.98;50.51
6833;BME280;3454;42.654;23.378;2023-02-23T15:00:32;94364.31;;;15.91;51.25
6833;BME280;3454;42.654;23.378;2023-02-23T15:03:08;94359.09;;;15.76;51.55
6833;BME280;3454;42.654;23.378;2023-02-23T15:05:57;94371.41;;;15.81;51.98
6833;BME280;3454;42.654;23.378;2023-02-23T15:08:25;94356.81;;;15.51;52.81
6833;BME280;3454;42.654;23.378;2023-02-23T15:11:02;94362.63;;;15.37;52.94
6833;BME280;3454;42.654;23.378;2023-02-23T15:13:34;94359.41;;;15.35;53.85
6833;BME280;3454;42.654;23.378;2023-02-23T15:16:14;94374.16;;;15.33;52.89
6833;BME280;3454;42.654;23.378;2023-02-23T15:18:42;94370.81;;;15.24;53.33
6833;BME280;3454;42.654;23.378;2023-02-23T15:21:15;94377.41;;;15.19;53.58
6833;BME280;3454;42.654;23.378;2023-02-23T15:23:51;94366.56;;;15.00;53.78
6833;BME280;3454;42.654;23.378;2023-02-23T15:26:27;94369.25;;;14.99;54.10
6833;BME280;3454;42.654;23.378;2023-02-23T15:29:04;94371.84;;;14.91;54.12
6833;BME280;3454;42.654;23.378;2023-02-23T15:31:30;94370.75;;;14.85;54.57
6833;BME280;3454;42.654;23.378;2023-02-23T15:33:55;94387.34;;;14.97;54.37